Thunder radar more information blitzortung!


Löydät sääaseman tiedot myös:

European Weather Network

Finland Weather Exchange

Weather Underground

AWEKAS



Weather Underground säähistoriasivu

Päivittäin yhteenveto Tammikuu 27, 2017 Yksiköt:  Englantilaiset    Metriset   Molemmat
« Edellinen Päivä
Seuraava Päivä »
Päivittäin Viikoittain Kuukausittain Vuosittain Mukautettu
  Korkea: Matala: Keskiarvo:
Lämpötila: TemperatureC °F -1.4 °F 1.6 °F
Kastepiste: DewpointC °F -2.0 °F 0.1 °F
Kosteus: Humidity % 84 % 89 %
Tuulen nopeus: WindSpeedKMH mph 0.0 mph 0 mph
Tuulenpuuska: WindSpeedGustKMH mph - -
Tuuli:- - North
Ilmanpaine: PressurehPa in 1016.5 in -
Sade: 0.0 in    
Historical Graphs
 
 
Taulukkotiedot Tammikuu 27, 2017
Aika Lämpötila Kastepiste Ilmanpaine Tuuli Tuulen nopeus Tuulenpuuska Kosteus Sademäärä (tunneittain)
TemperatureC °F DewpointC °F PressurehPa in Calm     Humidity % HourlyPrecipMM in
00:00 3.8 °F 2.7 °F 1016.5 in Calm     93 % 0.0 in
00:15 3.8 °F 2.8 °F 1016.5 in Calm     93 % 0.0 in
00:30 3.8 °F 2.6 °F 1016.8 in Calm     92 % 0.0 in
00:45 4.1 °F 3.1 °F 1016.8 in Calm     93 % 0.0 in
01:00 4.3 °F 3.1 °F 1016.5 in Calm     92 % 0.0 in
01:15 4.3 °F 2.9 °F 1016.8 in Calm     91 % 0.0 in
01:30 4.4 °F 3.1 °F 1016.5 in Calm     91 % 0.0 in
02:15 2.9 °F 1.6 °F 1016.8 in Calm     91 % 0.0 in
02:30 2.4 °F 1.3 °F 1016.8 in Calm     92 % 0.0 in
02:45 2.4 °F 1.5 °F 1016.8 in Calm     94 % 0.0 in
03:00 3.1 °F 2.2 °F 1016.8 in Calm     94 % 0.0 in
03:15 3.3 °F 2.1 °F 1017.2 in Calm     92 % 0.0 in
03:30 3.3 °F 2.2 °F 1017.2 in Calm     92 % 0.0 in
03:45 3.5 °F 2.0 °F 1017.2 in Calm     90 % 0.0 in
04:00 3.6 °F 1.9 °F 1017.2 in Calm     89 % 0.0 in
04:15 3.5 °F 1.7 °F 1017.2 in Calm     88 % 0.0 in
04:30 3.3 °F 1.5 °F 1017.5 in Calm     88 % 0.0 in
04:45 2.7 °F 1.0 °F 1017.5 in Calm     89 % 0.0 in
05:00 1.9 °F 0.6 °F 1017.5 in Calm     91 % 0.0 in
05:30 1.2 °F 0.4 °F 1017.8 in Calm     94 % 0.0 in
05:45 1.0 °F 0.1 °F 1017.8 in Calm     94 % 0.0 in
06:00 0.8 °F -0.2 °F 1017.8 in Calm     93 % 0.0 in
06:15 0.6 °F -0.3 °F 1017.8 in Calm     94 % 0.0 in
06:30 0.4 °F -0.4 °F 1017.8 in Calm     94 % 0.0 in
06:45 0.2 °F -0.6 °F 1017.8 in Calm     94 % 0.0 in
07:00 -0.1 °F -1.0 °F 1017.8 in Calm     94 % 0.0 in
07:15 -0.3 °F -1.0 °F 1017.8 in Calm     95 % 0.0 in
07:30 -0.4 °F -1.1 °F 1017.5 in Calm     95 % 0.0 in
07:45 -0.8 °F -1.5 °F 1017.5 in Calm     95 % 0.0 in
08:00 -0.8 °F -1.5 °F 1017.8 in Calm     95 % 0.0 in
08:15 -0.8 °F -1.4 °F 1017.8 in Calm     96 % 0.0 in
08:30 -0.8 °F -1.3 °F 1018.2 in Calm     96 % 0.0 in
08:45 -0.7 °F -1.2 °F 1018.2 in Calm     96 % 0.0 in
09:00 -0.7 °F -1.3 °F 1018.5 in Calm     96 % 0.0 in
09:15 -1.0 °F -1.7 °F 1018.5 in Calm     95 % 0.0 in
09:30 -1.3 °F -2.0 °F 1018.8 in Calm     95 % 0.0 in
09:45 -1.4 °F -1.9 °F 1018.8 in Calm     96 % 0.0 in
10:00 -1.3 °F -1.9 °F 1018.8 in Calm     96 % 0.0 in
10:16 -1.3 °F -1.9 °F 1018.8 in Calm     96 % 0.0 in
10:30 -1.1 °F -1.7 °F 1019.2 in Calm     96 % 0.0 in
10:45 -0.7 °F -1.1 °F 1019.2 in Calm     97 % 0.0 in
11:00 -0.2 °F -0.8 °F 1019.2 in Calm     96 % 0.0 in
11:15 0.2 °F -0.5 °F 1019.2 in Calm     95 % 0.0 in
11:30 0.6 °F -0.4 °F 1019.2 in Calm     93 % 0.0 in
11:45 1.0 °F -0.2 °F 1019.2 in Calm     92 % 0.0 in
12:00 1.3 °F -0.1 °F 1019.2 in Calm     90 % 0.0 in
12:15 1.7 °F 0.1 °F 1019.2 in Calm     89 % 0.0 in
12:30 1.9 °F 0.2 °F 1019.2 in Calm     88 % 0.0 in
12:45 2.1 °F 0.2 °F 1019.2 in Calm     87 % 0.0 in
13:00 2.2 °F 0.1 °F 1018.8 in Calm     86 % 0.0 in
13:15 2.3 °F 0.2 °F 1018.8 in Calm     86 % 0.0 in
13:30 2.6 °F 0.3 °F 1019.2 in Calm     85 % 0.0 in
13:45 2.7 °F 0.3 °F 1019.2 in Calm     84 % 0.0 in
14:00 2.7 °F 0.5 °F 1018.8 in Calm     85 % 0.0 in
14:15 2.7 °F 0.4 °F 1019.2 in Calm     85 % 0.0 in
14:45 2.8 °F 0.6 °F 1018.5 in Calm     85 % 0.0 in
15:00 2.7 °F 0.6 °F 1018.5 in Calm     86 % 0.0 in
15:15 2.8 °F 0.5 °F 1018.5 in Calm     85 % 0.0 in
15:31 2.3 °F 0.2 °F 1018.5 in Calm     86 % 0.0 in
15:45 1.7 °F -0.3 °F 1018.2 in Calm     87 % 0.0 in
16:00 1.1 °F -0.7 °F 1018.2 in Calm     88 % 0.0 in
16:15 0.8 °F -0.6 °F 1018.5 in Calm     90 % 0.0 in
16:30 1.1 °F -0.5 °F 1018.2 in Calm     89 % 0.0 in
16:45 1.2 °F -0.5 °F 1018.2 in Calm     88 % 0.0 in
17:00 1.2 °F -0.5 °F 1018.2 in Calm     88 % 0.0 in
17:15 1.4 °F -0.5 °F 1017.8 in Calm     87 % 0.0 in
17:30 1.4 °F -0.5 °F 1018.2 in Calm     87 % 0.0 in
17:45 1.2 °F -0.8 °F 1018.2 in Calm     87 % 0.0 in
18:00 0.7 °F -1.0 °F 1017.8 in Calm     88 % 0.0 in
18:15 0.3 °F -1.1 °F 1017.8 in Calm     90 % 0.0 in
18:30 0.1 °F -1.3 °F 1017.8 in Calm     90 % 0.0 in
18:45 0.1 °F -1.1 °F 1017.8 in Calm     92 % 0.0 in
19:00 1.3 °F 0.4 °F 1017.5 in Calm     94 % 0.0 in
19:15 2.4 °F 0.8 °F 1017.5 in Calm     89 % 0.0 in
19:30 2.7 °F 0.9 °F 1017.5 in Calm     88 % 0.0 in
19:45 2.8 °F 1.0 °F 1017.5 in Calm     88 % 0.0 in
20:00 2.8 °F 0.8 °F 1017.2 in Calm     87 % 0.0 in
20:15 2.8 °F 1.0 °F 1017.2 in Calm     88 % 0.0 in
20:30 2.7 °F 0.8 °F 1017.2 in Calm     87 % 0.0 in
20:45 2.6 °F 0.7 °F 1017.2 in Calm     87 % 0.0 in
21:00 2.6 °F 0.5 °F 1017.2 in Calm     86 % 0.0 in
21:15 2.6 °F 0.5 °F 1017.2 in Calm     86 % 0.0 in
21:30 2.5 °F 0.2 °F 1016.8 in Calm     85 % 0.0 in
21:45 2.4 °F 0.1 °F 1016.8 in Calm     85 % 0.0 in
22:00 2.4 °F 0.2 °F 1016.8 in Calm     85 % 0.0 in
22:15 2.4 °F 0.0 °F 1016.8 in Calm     84 % 0.0 in
22:30 2.3 °F -0.1 °F 1016.8 in Calm     84 % 0.0 in
22:45 2.1 °F -0.3 °F 1016.8 in Calm     84 % 0.0 in
23:00 1.9 °F -0.5 °F 1016.8 in Calm     84 % 0.0 in
23:15 1.8 °F -0.4 °F 1016.8 in Calm     85 % 0.0 in
23:30 1.7 °F -0.5 °F 1016.8 in Calm     85 % 0.0 in
23:45 1.7 °F -0.6 °F 1016.8 in Calm     85 % 0.0 in
Esan sääasema
Terveisin Weather Underground - 2.75 mb

Alkuperäinen skripti  Jim McMurry - jmcmurry@mwt.net Sovitettu myös templatelle  Wim van der Kuil - Leuven-Template.eu

Laitteet joita käytämme:

Sääasema
Davis VP2

Sääasemaohjelma
Cumulus

Sääaseman tietokone
Asus EeePC

Palveluntarjoaja
Suncomet

Davis VP2

Cumulus

Asus EeePC

Suncomet